createdAt,value
2023-04-21T00:00:53.911Z,5.60
2023-04-21T00:06:38.824Z,5.60
2023-04-21T00:12:20.668Z,5.50
2023-04-21T00:17:54.947Z,5.40
2023-04-21T00:23:29.901Z,5.30
2023-04-21T00:28:59.419Z,5.20
2023-04-21T00:34:24.248Z,5.10
2023-04-21T00:39:46.744Z,5.00
2023-04-21T00:45:09.063Z,4.90
2023-04-21T00:50:30.613Z,4.80
2023-04-21T00:56:08.212Z,4.70
2023-04-21T01:01:54.535Z,4.60
2023-04-21T01:07:34.407Z,4.60
2023-04-21T01:12:56.202Z,4.60
2023-04-21T01:18:26.685Z,4.50
2023-04-21T01:23:58.080Z,4.50
2023-04-21T01:29:21.583Z,4.40
2023-04-21T01:34:43.647Z,4.40
2023-04-21T01:40:07.804Z,4.40
2023-04-21T01:45:30.595Z,4.40
2023-04-21T01:51:08.734Z,4.40
2023-04-21T01:56:55.771Z,4.30
2023-04-21T02:02:29.636Z,4.30
2023-04-21T02:07:52.681Z,4.30
2023-04-21T02:13:29.081Z,4.20
2023-04-21T02:19:05.089Z,4.10
2023-04-21T02:24:27.628Z,4.10
2023-04-21T02:29:49.168Z,4.00
2023-04-21T02:35:10.767Z,4.00
2023-04-21T02:40:33.228Z,3.90
2023-04-21T02:46:11.423Z,3.80
2023-04-21T02:52:03.762Z,3.80
2023-04-21T02:57:50.858Z,3.70
2023-04-21T03:03:59.861Z,3.60
2023-04-21T03:09:30.039Z,3.60
2023-04-21T03:14:51.704Z,3.60
2023-04-21T03:20:13.127Z,3.50
2023-04-21T03:25:34.792Z,3.50
2023-04-21T03:31:18.972Z,3.50
2023-04-21T03:37:08.740Z,3.50
2023-04-21T03:42:54.904Z,3.50
2023-04-21T03:48:30.980Z,3.50
2023-04-21T03:54:03.515Z,3.50
2023-04-21T03:59:26.266Z,3.50
2023-04-21T04:05:09.358Z,3.50
2023-04-21T04:10:47.144Z,3.50
2023-04-21T04:16:55.375Z,3.60
2023-04-21T04:22:47.827Z,3.60
2023-04-21T04:28:12.476Z,3.70
2023-04-21T04:33:43.648Z,3.70
2023-04-21T04:39:15.706Z,3.70
2023-04-21T04:44:38.283Z,3.70
2023-04-21T04:49:59.839Z,3.80
2023-04-21T04:55:22.365Z,3.90
2023-04-21T05:00:43.904Z,3.90
2023-04-21T05:06:20.476Z,4.00
2023-04-21T05:11:56.461Z,4.30
2023-04-21T05:17:27.168Z,4.60
2023-04-21T05:22:56.674Z,4.90
2023-04-21T05:28:35.759Z,5.30
2023-04-21T05:34:05.068Z,5.60
2023-04-21T05:39:28.695Z,6.00
2023-04-21T05:44:49.975Z,6.40
2023-04-21T05:50:11.522Z,6.80
2023-04-21T05:55:35.759Z,7.20
2023-04-21T06:00:57.103Z,7.60
2023-04-21T06:06:46.865Z,8.10
2023-04-21T06:12:24.317Z,8.60
2023-04-21T06:18:03.808Z,9.30
2023-04-21T06:23:28.477Z,9.70
2023-04-21T06:29:05.320Z,10.20
2023-04-21T06:34:27.545Z,10.70
2023-04-21T06:39:48.975Z,11.10
2023-04-21T06:45:11.129Z,11.60
2023-04-21T06:50:34.396Z,12.00
2023-04-21T06:56:11.724Z,12.40
2023-04-21T07:02:00.206Z,12.80
2023-04-21T07:07:44.024Z,13.10
2023-04-21T07:13:08.835Z,13.50
2023-04-21T07:18:56.707Z,13.80
2023-04-21T07:24:19.519Z,14.10
2023-04-21T07:29:41.010Z,14.30
2023-04-21T07:35:03.225Z,14.50
2023-04-21T07:40:28.810Z,14.80
2023-04-21T07:52:01.783Z,15.40
2023-04-21T07:57:42.696Z,15.40
2023-04-21T08:03:24.421Z,15.60
2023-04-21T08:08:47.551Z,15.60
2023-04-21T08:14:21.249Z,15.60
2023-04-21T08:19:43.594Z,15.90
2023-04-21T08:25:05.827Z,16.00
2023-04-21T08:30:29.958Z,16.10
2023-04-21T08:36:15.079Z,16.10
2023-04-21T08:42:04.664Z,16.00
2023-04-21T08:47:47.491Z,16.10
2023-04-21T08:53:25.205Z,16.40
2023-04-21T08:58:57.857Z,16.60
2023-04-21T09:04:42.013Z,16.70
2023-04-21T09:10:06.424Z,16.70
2023-04-21T09:15:31.681Z,16.80
2023-04-21T09:21:27.433Z,17.00
2023-04-21T09:27:12.890Z,17.10
2023-04-21T09:32:56.129Z,17.30
2023-04-21T09:38:32.158Z,17.30
2023-04-21T09:44:05.236Z,17.40
2023-04-21T09:49:34.069Z,17.50
2023-04-21T09:55:01.939Z,17.20
2023-04-21T10:00:31.299Z,17.00
2023-04-21T10:06:18.175Z,17.20
2023-04-21T10:12:10.092Z,17.10
2023-04-21T10:17:56.090Z,16.90
2023-04-21T10:23:40.423Z,17.10
2023-04-21T10:29:09.223Z,17.20
2023-04-21T10:34:39.218Z,17.20
2023-04-21T10:40:00.471Z,17.50
2023-04-21T10:45:30.466Z,17.90
2023-04-21T10:51:09.386Z,18.10
2023-04-21T10:57:00.479Z,17.80
2023-04-21T11:02:53.320Z,18.40
2023-04-21T11:08:16.199Z,18.60
2023-04-21T11:13:51.299Z,19.00
2023-04-21T11:19:16.360Z,19.50
2023-04-21T11:24:37.816Z,19.50
2023-04-21T11:29:59.276Z,19.70
2023-04-21T11:35:21.047Z,19.40
2023-04-21T11:40:48.039Z,19.30
2023-04-21T11:46:40.855Z,19.00
2023-04-21T11:52:20.501Z,18.70
2023-04-21T11:58:01.709Z,18.90
2023-04-21T12:03:36.438Z,18.40
2023-04-21T12:09:03.994Z,18.40
2023-04-21T12:14:27.189Z,18.50
2023-04-21T12:19:48.919Z,18.80
2023-04-21T12:25:10.587Z,18.80
2023-04-21T12:30:33.394Z,19.20
2023-04-21T12:36:25.226Z,19.50
2023-04-21T12:42:08.373Z,19.40
2023-04-21T12:48:05.362Z,19.60
2023-04-21T12:53:35.510Z,19.60
2023-04-21T12:59:06.773Z,19.60
2023-04-21T13:04:47.922Z,19.70
2023-04-21T13:10:28.121Z,19.10
2023-04-21T13:16:05.734Z,18.90
2023-04-21T13:21:54.767Z,18.80
2023-04-21T13:27:44.450Z,19.00
2023-04-21T13:33:22.426Z,18.60
2023-04-21T13:38:54.581Z,18.60
2023-04-21T13:44:18.054Z,18.60
2023-04-21T13:49:39.646Z,18.60
2023-04-21T13:55:01.136Z,18.80
2023-04-21T14:00:22.849Z,19.20
2023-04-21T14:06:05.064Z,19.50
2023-04-21T14:11:44.101Z,19.70
2023-04-21T14:17:22.907Z,19.90
2023-04-21T14:22:59.469Z,20.10
2023-04-21T14:28:38.717Z,19.70
2023-04-21T14:34:08.632Z,19.30
2023-04-21T14:39:30.720Z,19.10
2023-04-21T14:44:52.323Z,19.40
2023-04-21T14:50:13.735Z,19.50
2023-04-21T14:55:35.562Z,19.20
2023-04-21T15:00:57.108Z,19.00
2023-04-21T15:06:39.094Z,18.90
2023-04-21T15:12:17.458Z,18.80
2023-04-21T15:17:59.132Z,19.30
2023-04-21T15:23:38.376Z,19.50
2023-04-21T15:29:07.830Z,19.70
2023-04-21T15:34:31.039Z,19.70
2023-04-21T15:39:52.347Z,19.90
2023-04-21T15:45:13.979Z,19.60
2023-04-21T15:50:36.897Z,19.30
2023-04-21T15:56:27.310Z,19.30
2023-04-21T16:02:02.119Z,19.10
2023-04-21T16:07:48.102Z,19.20
2023-04-21T16:13:17.824Z,19.10
2023-04-21T16:18:52.786Z,19.00
2023-04-21T16:24:15.756Z,18.90
2023-04-21T16:29:37.681Z,18.80
2023-04-21T16:35:15.472Z,19.00
2023-04-21T16:40:37.370Z,19.10
2023-04-21T16:52:02.632Z,18.50
2023-04-21T16:57:50.474Z,18.80
2023-04-21T17:03:26.237Z,18.60
2023-04-21T17:08:49.856Z,18.30
2023-04-21T17:14:15.507Z,18.30
2023-04-21T17:19:37.725Z,18.40
2023-04-21T17:24:59.377Z,18.30
2023-04-21T17:30:22.880Z,18.10
2023-04-21T17:36:00.023Z,17.80
2023-04-21T17:42:02.547Z,17.60
2023-04-21T17:47:54.880Z,17.30
2023-04-21T17:53:28.418Z,17.40
2023-04-21T17:59:03.964Z,17.20
2023-04-21T18:04:39.400Z,17.00
2023-04-21T18:10:01.667Z,16.80
2023-04-21T18:15:23.295Z,16.60
2023-04-21T18:20:45.111Z,16.40
2023-04-21T18:26:34.775Z,16.10
2023-04-21T18:32:16.326Z,15.70
2023-04-21T18:37:57.445Z,15.40
2023-04-21T18:43:29.063Z,15.20
2023-04-21T18:48:57.869Z,14.90
2023-04-21T18:54:24.414Z,14.80
2023-04-21T18:59:46.618Z,14.50
2023-04-21T19:05:31.517Z,14.40
2023-04-21T19:10:55.768Z,14.00
2023-04-21T19:16:36.839Z,13.90
2023-04-21T19:22:18.005Z,13.70
2023-04-21T19:27:55.154Z,13.40
2023-04-21T19:33:28.978Z,13.10
2023-04-21T19:38:55.802Z,12.90
2023-04-21T19:44:20.254Z,12.70
2023-04-21T19:49:41.696Z,12.50
2023-04-21T19:55:04.718Z,12.30
2023-04-21T20:00:26.378Z,12.10
2023-04-21T20:05:50.529Z,11.80
2023-04-21T20:11:29.454Z,11.70
2023-04-21T20:17:10.352Z,11.50
2023-04-21T20:28:30.459Z,11.10
2023-04-21T20:33:56.923Z,10.90
2023-04-21T20:39:23.940Z,10.80
2023-04-21T20:44:46.342Z,10.60
2023-04-21T20:50:07.988Z,10.40
2023-04-21T20:55:30.257Z,10.30
2023-04-21T21:00:51.671Z,10.20
2023-04-21T21:06:39.912Z,10.10
2023-04-21T21:12:22.219Z,10.00
2023-04-21T21:18:00.699Z,10.00
2023-04-21T21:23:46.292Z,10.00
2023-04-21T21:29:13.964Z,9.90
2023-04-21T21:34:35.898Z,9.80
2023-04-21T21:39:57.277Z,9.70
2023-04-21T21:45:18.772Z,9.70
2023-04-21T21:50:40.623Z,9.60
2023-04-21T21:56:33.279Z,9.60
2023-04-21T22:02:08.486Z,9.50
2023-04-21T22:08:01.371Z,9.30
2023-04-21T22:13:42.146Z,9.20
2023-04-21T22:19:12.827Z,9.10
2023-04-21T22:24:34.670Z,9.10
2023-04-21T22:29:56.202Z,9.00
2023-04-21T22:35:17.766Z,8.90
2023-04-21T22:40:39.438Z,8.80
2023-04-21T22:46:29.413Z,8.70
2023-04-21T22:52:09.123Z,8.60
2023-04-21T22:58:02.474Z,8.50
2023-04-21T23:03:39.972Z,8.40
2023-04-21T23:09:09.797Z,8.40
2023-04-21T23:14:31.603Z,8.40
2023-04-21T23:19:55.284Z,8.30
2023-04-21T23:25:16.566Z,8.10
2023-04-21T23:30:38.385Z,8.00
2023-04-21T23:36:39.179Z,7.90
2023-04-21T23:42:22.376Z,7.70
2023-04-21T23:47:53.029Z,7.60
2023-04-21T23:53:20.822Z,7.40
2023-04-21T23:58:55.941Z,7.30
